createdAt,value
2023-03-26T00:04:43.188Z,0
2023-03-26T00:09:43.033Z,0
2023-03-26T00:14:43.684Z,0
2023-03-26T02:01:18.019Z,0
2023-03-26T02:06:01.357Z,0
2023-03-26T02:15:59.408Z,0
2023-03-26T02:20:59.652Z,0
2023-03-26T02:26:00.013Z,0
2023-03-26T02:31:00.619Z,0
2023-03-26T02:35:58.765Z,0
2023-03-26T02:40:57.457Z,0
2023-03-26T02:45:59.594Z,0
2023-03-26T02:50:56.104Z,0
2023-03-26T02:55:55.632Z,0
2023-03-26T03:00:00.533Z,0
2023-03-26T03:04:57.937Z,0
2023-03-26T03:09:57.227Z,0
2023-03-26T03:14:57.105Z,0
2023-03-26T03:19:56.177Z,0
2023-03-26T03:24:56.826Z,0
2023-03-26T03:29:56.525Z,0
2023-03-26T03:34:54.877Z,0
2023-03-26T03:39:54.768Z,0
2023-03-26T03:44:55.252Z,0
2023-03-26T03:49:53.908Z,0
2023-03-26T03:54:54.331Z,0
2023-03-26T03:59:58.603Z,0
2023-03-26T04:04:45.476Z,0
2023-03-26T04:09:41.295Z,0
2023-03-26T04:14:45.478Z,0
2023-03-26T04:19:40.781Z,0
2023-03-26T04:24:40.601Z,0
2023-03-26T04:29:39.364Z,0
2023-03-26T04:34:37.891Z,0
2023-03-26T04:39:36.860Z,0
2023-03-26T04:44:36.767Z,0
2023-03-26T04:49:36.692Z,0
2023-03-26T04:54:35.890Z,0
2023-03-26T06:01:16.786Z,0.02
2023-03-26T06:06:01.847Z,0.02
2023-03-26T06:11:01.368Z,0.02
2023-03-26T06:15:58.585Z,0.02
2023-03-26T06:20:58.760Z,0.03
2023-03-26T06:25:56.850Z,0.02
2023-03-26T06:30:56.599Z,0.02
2023-03-26T06:35:56.618Z,0.02
2023-03-26T06:40:57.183Z,0.02
2023-03-26T06:50:56.281Z,0.03
2023-03-26T06:55:55.065Z,0.04
2023-03-26T07:00:14.772Z,0.04
2023-03-26T07:05:14.989Z,0.04
2023-03-26T07:10:13.675Z,0.04
2023-03-26T07:15:13.337Z,0.04
2023-03-26T07:20:13.422Z,0.04
2023-03-26T07:25:13.039Z,0.04
2023-03-26T07:35:14.317Z,0.02
2023-03-26T07:40:10.040Z,0.03
2023-03-26T07:45:09.965Z,0.05
2023-03-26T07:50:09.256Z,0.04
2023-03-26T07:55:09.311Z,0.04
2023-03-26T08:04:34.815Z,0.05
2023-03-26T08:09:09.513Z,0.08
2023-03-26T08:14:09.208Z,0.06
2023-03-26T08:19:09.649Z,0.04
2023-03-26T08:24:23.288Z,0.08
2023-03-26T08:29:08.185Z,0.1
2023-03-26T08:34:10.047Z,0.08
2023-03-26T08:39:07.974Z,0.1
2023-03-26T08:44:06.167Z,0.16
2023-03-26T08:49:04.948Z,0.22
2023-03-26T08:54:04.757Z,0.15
2023-03-26T08:59:04.557Z,0.23
2023-03-26T09:00:51.369Z,0.16
2023-03-26T09:15:25.671Z,0.29
2023-03-26T09:30:22.848Z,0.48
2023-03-26T09:35:23.978Z,0.53
2023-03-26T09:50:19.751Z,0.14
2023-03-26T09:55:18.759Z,0.12
2023-03-26T10:01:26.090Z,0.29
2023-03-26T10:05:59.090Z,0.32
2023-03-26T10:10:58.880Z,0.36
2023-03-26T10:15:57.404Z,0.75
2023-03-26T10:20:57.220Z,0.76
2023-03-26T10:25:56.553Z,0.6
2023-03-26T10:30:56.904Z,0.71
2023-03-26T10:35:57.561Z,0.68
2023-03-26T10:40:57.013Z,0.71
2023-03-26T10:45:58.899Z,0.81
2023-03-26T10:51:06.016Z,0.45
2023-03-26T10:55:58.053Z,0.81
2023-03-26T11:00:17.376Z,0.51
2023-03-26T11:05:17.620Z,0.84
2023-03-26T11:10:17.357Z,0.84
2023-03-26T11:15:27.656Z,0.83
2023-03-26T11:20:15.094Z,0.89
2023-03-26T11:30:25.135Z,0.52
2023-03-26T11:35:14.605Z,0.87
2023-03-26T11:40:12.923Z,0.87
2023-03-26T11:45:13.409Z,0.89
2023-03-26T11:50:12.241Z,0.87
2023-03-26T12:00:01.616Z,0.63
2023-03-26T12:05:00.538Z,0.89
2023-03-26T12:10:17.901Z,0.85
2023-03-26T12:14:59.071Z,0.5
2023-03-26T12:19:58.368Z,0.43
2023-03-26T12:24:57.590Z,0.51
2023-03-26T12:30:50.718Z,0.72
2023-03-26T12:34:57.484Z,0.65
2023-03-26T12:48:08.379Z,0.46
2023-03-26T12:49:56.382Z,0.57
2023-03-26T12:54:58.011Z,0.92
2023-03-26T13:04:39.383Z,0.53
2023-03-26T13:09:38.501Z,0.41
2023-03-26T13:14:38.533Z,0.45
2023-03-26T13:19:37.121Z,0.38
2023-03-26T13:24:36.889Z,0.37
2023-03-26T13:29:36.052Z,0.32
2023-03-26T13:34:37.061Z,0.23
2023-03-26T13:39:41.949Z,0.26
2023-03-26T13:44:33.933Z,0.22
2023-03-26T13:49:32.890Z,0.16
2023-03-26T13:54:33.079Z,0.1
2023-03-26T14:01:25.453Z,0.06
2023-03-26T14:06:00.925Z,0.06
2023-03-26T14:11:01.867Z,0.04
2023-03-26T14:15:58.346Z,0.03
2023-03-26T14:20:57.673Z,0.03
2023-03-26T14:25:57.625Z,0.02
2023-03-26T14:30:55.723Z,0.03
2023-03-26T14:35:55.999Z,0.04
2023-03-26T14:40:54.763Z,0.06
2023-03-26T14:45:43.498Z,0.08
2023-03-26T14:50:43.803Z,0.12
2023-03-26T14:55:43.220Z,0.11
2023-03-26T15:00:09.449Z,0.11
2023-03-26T15:05:05.577Z,0.11
2023-03-26T15:10:05.920Z,0.09
2023-03-26T15:15:04.978Z,0.11
2023-03-26T15:20:04.441Z,0.14
2023-03-26T15:25:04.767Z,0.12
2023-03-26T15:30:03.855Z,0.09
2023-03-26T15:35:05.179Z,0.11
2023-03-26T15:40:03.336Z,0.12
2023-03-26T15:50:02.987Z,0.09
2023-03-26T15:55:01.671Z,0.1
2023-03-26T15:59:57.124Z,0.1
2023-03-26T16:05:02.255Z,0.09
2023-03-26T16:09:56.010Z,0.07
2023-03-26T16:14:55.904Z,0.06
2023-03-26T16:19:54.524Z,0.06
2023-03-26T16:29:54.920Z,0.02
2023-03-26T17:04:39.512Z,0.01
2023-03-26T17:09:41.510Z,0.01
2023-03-26T17:14:42.336Z,0.01
2023-03-26T17:19:36.733Z,0.01
2023-03-26T17:24:37.548Z,0.01
2023-03-26T17:29:35.879Z,0.01
2023-03-26T17:34:36.267Z,0
2023-03-26T17:39:38.453Z,0
2023-03-26T17:44:33.882Z,0
2023-03-26T17:49:32.588Z,0
2023-03-26T17:54:32.714Z,0
2023-03-26T17:59:43.974Z,0
2023-03-26T18:39:30.630Z,0
2023-03-26T19:01:26.019Z,0
2023-03-26T19:55:54.254Z,0
2023-03-26T20:00:12.458Z,0
2023-03-26T20:59:54.662Z,0
2023-03-26T21:54:36.648Z,0
2023-03-26T22:04:36.632Z,0
2023-03-26T22:09:47.366Z,0
2023-03-26T22:14:34.843Z,0
2023-03-26T22:19:34.857Z,0
2023-03-26T22:24:34.026Z,0
2023-03-26T22:29:34.066Z,0
2023-03-26T22:34:31.477Z,0
2023-03-26T22:39:31.288Z,0
2023-03-26T22:44:41.448Z,0
2023-03-26T22:49:30.524Z,0
2023-03-26T22:54:29.627Z,0
2023-03-26T23:01:18.398Z,0
2023-03-26T23:05:50.787Z,0
2023-03-26T23:10:58.843Z,0
2023-03-26T23:15:57.909Z,0
2023-03-26T23:20:58.249Z,0
2023-03-26T23:25:56.967Z,0
2023-03-26T23:30:57.441Z,0
2023-03-26T23:41:08.222Z,0
2023-03-26T23:45:55.578Z,0
2023-03-26T23:51:03.297Z,0
2023-03-26T23:55:56.517Z,0
